Butte, MT

7:55 PM MDT on October 25, 2014 (GMT -0600)
Mooney | Change Station
CLOSE
Current Station
Airport
Location: Butte,
Elevation: 5545 ft
Nearby Weather Stations

Elev 5545 ft 45.95 °N, 112.50 °W | Updated 1 hour ago

Clear
Clear
56 °F
Feels Like 56 °F
N
13
Wind Variable Wind from SSE

Today
High -- | Low -- °F
--% Chance of Precip.
Yesterday
High -- | Low -- °F
Precip. -- in
8:00 AM 6:26 PM
Waxing Crescent, 5% visible
Pressure 29.75 in
Visibility 10.0 miles
Clouds Clear
Dew Point 33 °F
Humidity 42%
Rainfall 0.00 in
Snow Depth Not available.
UV 0 out of 12
Pollen 2.20 out of 12
Air Quality Not available.
Flu Activity Not available.
METAR KBTM 260053Z AUTO 16011KT 10SM CLR 13/01 A2978 RMK AO2 SLP074 T01330006

More Conditions Fewer Conditions

Pressure 29.75 in
Visibility 10.0 miles
Clouds Clear
Dew Point 33 °F
Humidity 42%
Rainfall 0.00 in
Snow Depth Not available.
UV 0 out of 12
Pollen 2.20 out of 12
Air Quality Not available.
Flu Activity Not available.
METAR KBTM 260053Z AUTO 16011KT 10SM CLR 13/01 A2978 RMK AO2 SLP074 T01330006

More Conditions Fewer Conditions

10-Day Weather Forecast

Almanac

Astronomy

Oct. 25, 2014 Rise Set
Actual Time 8:00 AM MDT 6:26 PM MDT
Civil Twilight 7:29 AM MDT 6:57 PM MDT
Nautical Twilight 6:55 AM MDT 7:32 PM MDT
Astronomical Twilight 6:20 AM MDT 8:06 PM MDT
Moon 9:47 AM MDT (10/25) 7:47 PM MDT (10/25)
Length of Visible Light 11h 27m
Length of Day
10h 26m
Tomorrow will be 3m 1s shorter.
Waxing Crescent, 5% of the Moon is Illuminated
Today
Waxing Crescent
Oct 30
First Quarter
Nov 6
Full
Nov 14
Last Quarter
Nov 22
New

Today's Extremes

State Highs State Lows

Community

WunderPhotos

Upload Photos

1,765,071 photos uploaded!

Nearby

Snow Depth

Station Depth Elevation
Brackett Creek 0 in 7320 ft
Rocker Peak 0 in 8000 ft
Barker Lakes 0 in 8250 ft
Mule Creek 0 in 8300 ft
Black Pine 1 in 7210 ft

Earthquake Activity

City Distance Mag. Time & Date
No recent earthquake activity has been reported nearby.
Minimum magnitude displayed is 2.5.

Coastal Water Temperatures

Place Temperature
No Stations Reporting

Nearby Weather Stations